Main page
METAR-TAF:

METAR-TAF

Airports :

Hafar Al-Batin, Saudi Arabia

King Khalid Military City

latitude: 27-54N, longitude: 045-32E, elevation: 413 m

Current weather observation

The report was made 31 minutes ago, at 20:00 UTC
Wind 14 kt from the South
Temperature 29°C
Humidity 31%
Pressure 1013 hPa
Visibility: 2000 m
Broken clouds at a height of 3500 ft
Blowing dust

METAR: OEKK 302000Z 18014KT 2000 BLDU BKN035 29/10 Q1013 NOSIG

Time: 23:31 (20:31 UTC)

Forecast

The report was made 15 hours and 31 minutes ago, at 05:00 UTC
Forecast valid from 30 at 06 UTC to 30 at 20 UTC
Wind 12 kt from the South/Southwest with gusts up to 22 kt
Visibility: 6000 m
Scattered clouds at a height of 4000 ft
Scattered clouds at a height of 10000 ft
Temporary
from 30 at 06 UTC to 30 at 18 UTC
Visibility: 3000 m
Few clouds at a height of 3500 ft, Cumulonimbus.
Blowing dust, thunderstorm, rain

TAF: OEKK 300500Z 3006/3020 20012G22KT 6000 SCT040 SCT100 TEMPO 3006/3018 3000 BLDU TSRA FEW035CB

Weather observations and forecasts of more than 4000 airports (METAR and TAF reports).

The available stations are represented by yellow and red dots on the map.

Hover mouse over dot to see the name of the station.

Then click to see weather observations and forecasts.

To change the map : click on the green buttons with a black cross to zoom in, on the green button with a dash to zoom out, or on the green arrows for adjacent maps.


METAR-TAF: